Terminal Aerodrome Forecast
Issued by NWS

Home | Current Version | Previous Version | Text Only | Print | Product List | Glossary On
Versions: 1 2 3 4 5 6 7 8 9 10 11 12 13 14 15 16 17 18 19 20 21 22 23
000
FTUS45 KBOU 172325
TAFAPA
TAF
KAPA 172325Z 1800/1824 36007KT P6SM SCT080 SCT140
     FM180100 03007KT P6SM SCT080 BKN140
     FM180300 17007KT P6SM SCT140
     FM180700 22007KT P6SM SCT140
     FM181600 31006KT P6SM SCT140
     FM181900 03008KT P6SM FEW080 SCT140=

USA.gov is the U.S. government's official web portal to all federal, state and local government web resources and services.